sensor_id;sensor_type;location;lat;lon;timestamp;P1;durP1;ratioP1;P2;durP2;ratioP2
66966;SDS011;53900;51.468;-2.586;2022-11-15T00:01:35;5.90;;;1.17;;
66966;SDS011;53900;51.468;-2.586;2022-11-15T00:04:04;8.85;;;1.50;;
66966;SDS011;53900;51.468;-2.586;2022-11-15T00:06:30;8.10;;;1.58;;
66966;SDS011;53900;51.468;-2.586;2022-11-15T00:08:57;12.88;;;1.33;;
66966;SDS011;53900;51.468;-2.586;2022-11-15T00:11:23;12.32;;;1.27;;
66966;SDS011;53900;51.468;-2.586;2022-11-15T00:13:48;8.35;;;1.73;;
66966;SDS011;53900;51.468;-2.586;2022-11-15T00:16:14;10.20;;;1.42;;
66966;SDS011;53900;51.468;-2.586;2022-11-15T00:18:39;7.10;;;1.20;;
66966;SDS011;53900;51.468;-2.586;2022-11-15T00:21:06;7.03;;;1.25;;
66966;SDS011;53900;51.468;-2.586;2022-11-15T00:23:33;16.02;;;1.65;;
66966;SDS011;53900;51.468;-2.586;2022-11-15T00:25:59;9.32;;;1.75;;
66966;SDS011;53900;51.468;-2.586;2022-11-15T00:28:24;10.23;;;1.60;;
66966;SDS011;53900;51.468;-2.586;2022-11-15T00:30:50;7.35;;;1.20;;
66966;SDS011;53900;51.468;-2.586;2022-11-15T00:33:16;6.55;;;1.10;;
66966;SDS011;53900;51.468;-2.586;2022-11-15T00:35:41;7.95;;;1.25;;
66966;SDS011;53900;51.468;-2.586;2022-11-15T00:38:06;11.80;;;1.40;;
66966;SDS011;53900;51.468;-2.586;2022-11-15T00:40:32;12.43;;;2.05;;
66966;SDS011;53900;51.468;-2.586;2022-11-15T00:42:57;8.30;;;1.20;;
66966;SDS011;53900;51.468;-2.586;2022-11-15T00:45:23;11.27;;;2.13;;
66966;SDS011;53900;51.468;-2.586;2022-11-15T00:47:48;13.88;;;1.60;;
66966;SDS011;53900;51.468;-2.586;2022-11-15T00:50:14;10.10;;;1.75;;
66966;SDS011;53900;51.468;-2.586;2022-11-15T00:52:39;12.88;;;1.63;;
66966;SDS011;53900;51.468;-2.586;2022-11-15T00:55:05;8.57;;;1.35;;
66966;SDS011;53900;51.468;-2.586;2022-11-15T00:57:30;9.95;;;1.52;;
66966;SDS011;53900;51.468;-2.586;2022-11-15T00:59:56;8.75;;;1.50;;
66966;SDS011;53900;51.468;-2.586;2022-11-15T01:02:21;16.27;;;2.35;;
66966;SDS011;53900;51.468;-2.586;2022-11-15T01:04:46;8.90;;;1.40;;
66966;SDS011;53900;51.468;-2.586;2022-11-15T01:07:12;11.77;;;1.30;;
66966;SDS011;53900;51.468;-2.586;2022-11-15T01:09:37;6.20;;;1.27;;
66966;SDS011;53900;51.468;-2.586;2022-11-15T01:12:03;7.50;;;1.25;;
66966;SDS011;53900;51.468;-2.586;2022-11-15T01:14:28;8.48;;;1.38;;
66966;SDS011;53900;51.468;-2.586;2022-11-15T01:16:54;7.85;;;1.65;;
66966;SDS011;53900;51.468;-2.586;2022-11-15T01:19:19;9.20;;;1.30;;
66966;SDS011;53900;51.468;-2.586;2022-11-15T01:21:44;11.68;;;2.15;;
66966;SDS011;53900;51.468;-2.586;2022-11-15T01:24:13;8.65;;;1.50;;
66966;SDS011;53900;51.468;-2.586;2022-11-15T01:26:38;13.32;;;2.25;;
66966;SDS011;53900;51.468;-2.586;2022-11-15T01:29:03;15.15;;;1.77;;
66966;SDS011;53900;51.468;-2.586;2022-11-15T01:31:29;10.75;;;1.42;;
66966;SDS011;53900;51.468;-2.586;2022-11-15T01:33:54;8.38;;;1.77;;
66966;SDS011;53900;51.468;-2.586;2022-11-15T01:36:20;8.23;;;1.85;;
66966;SDS011;53900;51.468;-2.586;2022-11-15T01:38:55;14.97;;;1.77;;
66966;SDS011;53900;51.468;-2.586;2022-11-15T01:41:26;5.82;;;1.45;;
66966;SDS011;53900;51.468;-2.586;2022-11-15T01:43:53;9.85;;;1.48;;
66966;SDS011;53900;51.468;-2.586;2022-11-15T01:46:37;11.52;;;1.52;;
66966;SDS011;53900;51.468;-2.586;2022-11-15T01:49:10;8.43;;;1.40;;
66966;SDS011;53900;51.468;-2.586;2022-11-15T01:51:37;11.65;;;1.70;;
66966;SDS011;53900;51.468;-2.586;2022-11-15T01:54:07;13.10;;;1.63;;
66966;SDS011;53900;51.468;-2.586;2022-11-15T01:56:36;9.48;;;1.42;;
66966;SDS011;53900;51.468;-2.586;2022-11-15T01:59:06;6.07;;;1.10;;
66966;SDS011;53900;51.468;-2.586;2022-11-15T02:01:32;5.18;;;0.88;;
66966;SDS011;53900;51.468;-2.586;2022-11-15T02:03:59;12.18;;;1.50;;
66966;SDS011;53900;51.468;-2.586;2022-11-15T02:06:27;12.75;;;1.48;;
66966;SDS011;53900;51.468;-2.586;2022-11-15T02:08:52;10.48;;;1.40;;
66966;SDS011;53900;51.468;-2.586;2022-11-15T02:11:18;8.77;;;1.20;;
66966;SDS011;53900;51.468;-2.586;2022-11-15T02:13:43;8.15;;;1.45;;
66966;SDS011;53900;51.468;-2.586;2022-11-15T02:21:42;10.68;;;1.67;;
66966;SDS011;53900;51.468;-2.586;2022-11-15T02:30:17;10.98;;;1.70;;
66966;SDS011;53900;51.468;-2.586;2022-11-15T02:38:08;11.10;;;1.55;;
66966;SDS011;53900;51.468;-2.586;2022-11-15T02:43:15;10.65;;;1.48;;
66966;SDS011;53900;51.468;-2.586;2022-11-15T02:46:10;8.05;;;1.25;;
66966;SDS011;53900;51.468;-2.586;2022-11-15T02:48:40;9.23;;;1.30;;
66966;SDS011;53900;51.468;-2.586;2022-11-15T02:51:06;10.98;;;1.33;;
66966;SDS011;53900;51.468;-2.586;2022-11-15T02:53:32;6.03;;;1.20;;
66966;SDS011;53900;51.468;-2.586;2022-11-15T02:55:57;7.60;;;1.35;;
66966;SDS011;53900;51.468;-2.586;2022-11-15T03:07:05;6.00;;;1.02;;
66966;SDS011;53900;51.468;-2.586;2022-11-15T03:09:42;9.40;;;1.45;;
66966;SDS011;53900;51.468;-2.586;2022-11-15T03:12:18;7.85;;;0.95;;
66966;SDS011;53900;51.468;-2.586;2022-11-15T03:14:57;2.80;;;0.75;;
66966;SDS011;53900;51.468;-2.586;2022-11-15T03:17:29;5.07;;;0.88;;
66966;SDS011;53900;51.468;-2.586;2022-11-15T03:19:59;4.60;;;0.80;;
66966;SDS011;53900;51.468;-2.586;2022-11-15T03:22:27;4.05;;;1.10;;
66966;SDS011;53900;51.468;-2.586;2022-11-15T03:24:55;6.63;;;1.05;;
66966;SDS011;53900;51.468;-2.586;2022-11-15T03:27:25;2.70;;;0.70;;
66966;SDS011;53900;51.468;-2.586;2022-11-15T03:29:54;4.20;;;0.90;;
66966;SDS011;53900;51.468;-2.586;2022-11-15T03:32:23;2.00;;;0.60;;
66966;SDS011;53900;51.468;-2.586;2022-11-15T03:37:24;3.65;;;0.60;;
66966;SDS011;53900;51.468;-2.586;2022-11-15T03:39:56;1.27;;;0.52;;
66966;SDS011;53900;51.468;-2.586;2022-11-15T03:42:27;3.08;;;0.55;;
66966;SDS011;53900;51.468;-2.586;2022-11-15T03:45:22;1.65;;;0.50;;
66966;SDS011;53900;51.468;-2.586;2022-11-15T03:47:53;1.45;;;0.50;;
66966;SDS011;53900;51.468;-2.586;2022-11-15T03:50:34;1.08;;;0.45;;
66966;SDS011;53900;51.468;-2.586;2022-11-15T03:52:59;2.72;;;0.60;;
66966;SDS011;53900;51.468;-2.586;2022-11-15T03:55:25;3.08;;;0.60;;
66966;SDS011;53900;51.468;-2.586;2022-11-15T03:57:51;2.17;;;0.70;;
66966;SDS011;53900;51.468;-2.586;2022-11-15T04:00:19;2.83;;;0.70;;
66966;SDS011;53900;51.468;-2.586;2022-11-15T04:02:45;1.45;;;0.50;;
66966;SDS011;53900;51.468;-2.586;2022-11-15T04:05:10;0.30;;;0.30;;
66966;SDS011;53900;51.468;-2.586;2022-11-15T04:07:36;0.60;;;0.50;;
66966;SDS011;53900;51.468;-2.586;2022-11-15T04:10:01;1.20;;;0.57;;
66966;SDS011;53900;51.468;-2.586;2022-11-15T04:12:28;1.95;;;0.70;;
66966;SDS011;53900;51.468;-2.586;2022-11-15T04:15:07;2.20;;;0.65;;
66966;SDS011;53900;51.468;-2.586;2022-11-15T04:20:10;1.33;;;0.38;;
66966;SDS011;53900;51.468;-2.586;2022-11-15T04:22:56;1.25;;;0.28;;
66966;SDS011;53900;51.468;-2.586;2022-11-15T04:25:42;1.02;;;0.30;;
66966;SDS011;53900;51.468;-2.586;2022-11-15T04:28:08;0.88;;;0.68;;
66966;SDS011;53900;51.468;-2.586;2022-11-15T04:30:33;0.98;;;0.32;;
66966;SDS011;53900;51.468;-2.586;2022-11-15T04:32:58;0.63;;;0.30;;
66966;SDS011;53900;51.468;-2.586;2022-11-15T04:35:24;0.63;;;0.30;;
66966;SDS011;53900;51.468;-2.586;2022-11-15T04:37:49;0.30;;;0.22;;
66966;SDS011;53900;51.468;-2.586;2022-11-15T04:40:15;0.82;;;0.30;;
66966;SDS011;53900;51.468;-2.586;2022-11-15T04:42:41;0.47;;;0.20;;
66966;SDS011;53900;51.468;-2.586;2022-11-15T04:45:07;1.52;;;0.40;;
66966;SDS011;53900;51.468;-2.586;2022-11-15T04:47:33;2.15;;;0.30;;
66966;SDS011;53900;51.468;-2.586;2022-11-15T04:49:58;1.20;;;0.40;;
66966;SDS011;53900;51.468;-2.586;2022-11-15T04:52:24;1.75;;;0.30;;
66966;SDS011;53900;51.468;-2.586;2022-11-15T04:54:49;5.32;;;0.45;;
66966;SDS011;53900;51.468;-2.586;2022-11-15T04:57:14;0.20;;;0.20;;
66966;SDS011;53900;51.468;-2.586;2022-11-15T04:59:41;2.58;;;0.50;;
66966;SDS011;53900;51.468;-2.586;2022-11-15T05:02:06;1.00;;;0.22;;
66966;SDS011;53900;51.468;-2.586;2022-11-15T05:04:32;0.60;;;0.25;;
66966;SDS011;53900;51.468;-2.586;2022-11-15T05:06:57;0.73;;;0.30;;
66966;SDS011;53900;51.468;-2.586;2022-11-15T05:09:22;2.00;;;0.40;;
66966;SDS011;53900;51.468;-2.586;2022-11-15T05:11:48;1.30;;;0.43;;
66966;SDS011;53900;51.468;-2.586;2022-11-15T05:14:13;6.05;;;1.48;;
66966;SDS011;53900;51.468;-2.586;2022-11-15T05:16:39;0.88;;;0.40;;
66966;SDS011;53900;51.468;-2.586;2022-11-15T05:19:04;1.60;;;0.38;;
66966;SDS011;53900;51.468;-2.586;2022-11-15T05:21:30;1.52;;;0.50;;
66966;SDS011;53900;51.468;-2.586;2022-11-15T05:23:56;1.45;;;0.50;;
66966;SDS011;53900;51.468;-2.586;2022-11-15T05:26:21;3.47;;;0.50;;
66966;SDS011;53900;51.468;-2.586;2022-11-15T05:28:51;0.98;;;0.82;;
66966;SDS011;53900;51.468;-2.586;2022-11-15T05:31:20;1.13;;;0.50;;
66966;SDS011;53900;51.468;-2.586;2022-11-15T05:33:46;1.33;;;0.50;;
66966;SDS011;53900;51.468;-2.586;2022-11-15T05:36:20;1.45;;;0.60;;
66966;SDS011;53900;51.468;-2.586;2022-11-15T05:38:52;1.38;;;0.40;;
66966;SDS011;53900;51.468;-2.586;2022-11-15T05:41:18;1.58;;;0.60;;
66966;SDS011;53900;51.468;-2.586;2022-11-15T05:43:46;2.35;;;0.43;;
66966;SDS011;53900;51.468;-2.586;2022-11-15T05:46:13;7.03;;;0.70;;
66966;SDS011;53900;51.468;-2.586;2022-11-15T05:48:40;2.65;;;0.63;;
66966;SDS011;53900;51.468;-2.586;2022-11-15T05:51:06;4.40;;;0.60;;
66966;SDS011;53900;51.468;-2.586;2022-11-15T05:53:32;3.92;;;0.63;;
66966;SDS011;53900;51.468;-2.586;2022-11-15T05:55:58;2.28;;;0.50;;
66966;SDS011;53900;51.468;-2.586;2022-11-15T05:58:23;3.80;;;0.57;;
66966;SDS011;53900;51.468;-2.586;2022-11-15T06:00:48;3.92;;;0.50;;
66966;SDS011;53900;51.468;-2.586;2022-11-15T06:03:14;2.90;;;0.68;;
66966;SDS011;53900;51.468;-2.586;2022-11-15T06:05:39;3.83;;;0.52;;
66966;SDS011;53900;51.468;-2.586;2022-11-15T06:08:05;4.05;;;0.60;;
66966;SDS011;53900;51.468;-2.586;2022-11-15T06:10:30;1.90;;;0.40;;
66966;SDS011;53900;51.468;-2.586;2022-11-15T06:12:57;2.80;;;0.55;;
66966;SDS011;53900;51.468;-2.586;2022-11-15T06:15:26;1.52;;;0.63;;
66966;SDS011;53900;51.468;-2.586;2022-11-15T06:17:52;2.78;;;0.52;;
66966;SDS011;53900;51.468;-2.586;2022-11-15T06:20:22;3.42;;;0.55;;
66966;SDS011;53900;51.468;-2.586;2022-11-15T06:22:48;2.22;;;0.50;;
66966;SDS011;53900;51.468;-2.586;2022-11-15T06:25:13;4.55;;;1.00;;
66966;SDS011;53900;51.468;-2.586;2022-11-15T06:27:38;5.07;;;0.60;;
66966;SDS011;53900;51.468;-2.586;2022-11-15T06:30:04;2.38;;;0.88;;
66966;SDS011;53900;51.468;-2.586;2022-11-15T06:32:30;2.40;;;0.60;;
66966;SDS011;53900;51.468;-2.586;2022-11-15T06:34:55;4.18;;;0.82;;
66966;SDS011;53900;51.468;-2.586;2022-11-15T06:37:21;3.03;;;0.77;;
66966;SDS011;53900;51.468;-2.586;2022-11-15T06:39:46;2.58;;;0.65;;
66966;SDS011;53900;51.468;-2.586;2022-11-15T06:42:11;2.92;;;0.75;;
66966;SDS011;53900;51.468;-2.586;2022-11-15T06:44:36;3.75;;;0.70;;
66966;SDS011;53900;51.468;-2.586;2022-11-15T06:47:02;4.32;;;0.80;;
66966;SDS011;53900;51.468;-2.586;2022-11-15T06:49:27;3.67;;;0.60;;
66966;SDS011;53900;51.468;-2.586;2022-11-15T06:51:52;3.88;;;0.57;;
66966;SDS011;53900;51.468;-2.586;2022-11-15T06:54:18;3.80;;;0.60;;
66966;SDS011;53900;51.468;-2.586;2022-11-15T06:56:43;4.57;;;0.98;;
66966;SDS011;53900;51.468;-2.586;2022-11-15T06:59:08;4.78;;;0.70;;
66966;SDS011;53900;51.468;-2.586;2022-11-15T07:01:34;2.60;;;0.70;;
66966;SDS011;53900;51.468;-2.586;2022-11-15T07:03:59;2.15;;;0.50;;
66966;SDS011;53900;51.468;-2.586;2022-11-15T07:06:25;3.35;;;1.00;;
66966;SDS011;53900;51.468;-2.586;2022-11-15T07:08:50;2.90;;;0.68;;
66966;SDS011;53900;51.468;-2.586;2022-11-15T07:11:15;2.88;;;0.80;;
66966;SDS011;53900;51.468;-2.586;2022-11-15T07:13:41;4.90;;;0.85;;
66966;SDS011;53900;51.468;-2.586;2022-11-15T07:16:07;12.02;;;1.30;;
66966;SDS011;53900;51.468;-2.586;2022-11-15T07:18:36;7.75;;;0.75;;
66966;SDS011;53900;51.468;-2.586;2022-11-15T07:21:04;5.60;;;0.70;;
66966;SDS011;53900;51.468;-2.586;2022-11-15T07:23:30;3.17;;;0.57;;
66966;SDS011;53900;51.468;-2.586;2022-11-15T07:25:56;2.97;;;0.70;;
66966;SDS011;53900;51.468;-2.586;2022-11-15T07:28:23;4.45;;;0.82;;
66966;SDS011;53900;51.468;-2.586;2022-11-15T07:30:49;2.13;;;0.60;;
66966;SDS011;53900;51.468;-2.586;2022-11-15T07:33:15;6.40;;;0.90;;
66966;SDS011;53900;51.468;-2.586;2022-11-15T07:35:40;3.60;;;0.95;;
66966;SDS011;53900;51.468;-2.586;2022-11-15T07:38:07;6.13;;;0.70;;
66966;SDS011;53900;51.468;-2.586;2022-11-15T07:40:33;4.22;;;0.70;;
66966;SDS011;53900;51.468;-2.586;2022-11-15T07:42:59;1.38;;;0.65;;
66966;SDS011;53900;51.468;-2.586;2022-11-15T07:47:53;1.48;;;0.50;;
66966;SDS011;53900;51.468;-2.586;2022-11-15T07:50:20;3.83;;;0.60;;
66966;SDS011;53900;51.468;-2.586;2022-11-15T07:52:46;1.38;;;0.60;;
66966;SDS011;53900;51.468;-2.586;2022-11-15T07:55:11;4.18;;;0.85;;
66966;SDS011;53900;51.468;-2.586;2022-11-15T07:57:37;3.13;;;0.50;;
66966;SDS011;53900;51.468;-2.586;2022-11-15T08:00:03;2.92;;;0.95;;
66966;SDS011;53900;51.468;-2.586;2022-11-15T08:02:29;2.35;;;0.68;;
66966;SDS011;53900;51.468;-2.586;2022-11-15T08:04:54;1.48;;;0.55;;
66966;SDS011;53900;51.468;-2.586;2022-11-15T08:07:20;3.15;;;0.45;;
66966;SDS011;53900;51.468;-2.586;2022-11-15T08:09:45;1.08;;;0.50;;
66966;SDS011;53900;51.468;-2.586;2022-11-15T08:12:10;3.22;;;0.80;;
66966;SDS011;53900;51.468;-2.586;2022-11-15T08:14:36;2.15;;;0.60;;
66966;SDS011;53900;51.468;-2.586;2022-11-15T08:17:01;2.25;;;0.47;;
66966;SDS011;53900;51.468;-2.586;2022-11-15T08:19:26;1.90;;;0.60;;
66966;SDS011;53900;51.468;-2.586;2022-11-15T08:21:52;3.63;;;0.40;;
66966;SDS011;53900;51.468;-2.586;2022-11-15T08:24:17;1.15;;;0.50;;
66966;SDS011;53900;51.468;-2.586;2022-11-15T08:26:42;3.40;;;0.50;;
66966;SDS011;53900;51.468;-2.586;2022-11-15T08:29:08;4.78;;;0.60;;
66966;SDS011;53900;51.468;-2.586;2022-11-15T08:31:34;1.00;;;0.45;;
66966;SDS011;53900;51.468;-2.586;2022-11-15T08:34:01;0.60;;;0.40;;
66966;SDS011;53900;51.468;-2.586;2022-11-15T08:36:27;3.30;;;0.52;;
66966;SDS011;53900;51.468;-2.586;2022-11-15T08:38:53;6.05;;;0.63;;
66966;SDS011;53900;51.468;-2.586;2022-11-15T08:41:25;1.58;;;0.60;;
66966;SDS011;53900;51.468;-2.586;2022-11-15T08:43:52;1.88;;;0.43;;
66966;SDS011;53900;51.468;-2.586;2022-11-15T08:46:17;3.58;;;0.70;;
66966;SDS011;53900;51.468;-2.586;2022-11-15T08:48:43;2.58;;;0.90;;
66966;SDS011;53900;51.468;-2.586;2022-11-15T08:51:09;13.52;;;1.90;;
66966;SDS011;53900;51.468;-2.586;2022-11-15T08:53:34;4.60;;;1.00;;
66966;SDS011;53900;51.468;-2.586;2022-11-15T08:56:00;3.92;;;0.90;;
66966;SDS011;53900;51.468;-2.586;2022-11-15T08:58:25;3.30;;;0.55;;
66966;SDS011;53900;51.468;-2.586;2022-11-15T09:00:51;1.55;;;0.40;;
66966;SDS011;53900;51.468;-2.586;2022-11-15T09:03:16;0.32;;;0.20;;
66966;SDS011;53900;51.468;-2.586;2022-11-15T09:05:41;0.30;;;0.30;;
66966;SDS011;53900;51.468;-2.586;2022-11-15T09:08:07;2.83;;;0.73;;
66966;SDS011;53900;51.468;-2.586;2022-11-15T09:10:33;2.05;;;0.60;;
66966;SDS011;53900;51.468;-2.586;2022-11-15T09:12:58;2.58;;;0.80;;
66966;SDS011;53900;51.468;-2.586;2022-11-15T09:15:24;1.55;;;0.60;;
66966;SDS011;53900;51.468;-2.586;2022-11-15T09:17:49;1.83;;;0.60;;
66966;SDS011;53900;51.468;-2.586;2022-11-15T09:20:14;2.88;;;0.68;;
66966;SDS011;53900;51.468;-2.586;2022-11-15T09:22:40;1.73;;;0.65;;
66966;SDS011;53900;51.468;-2.586;2022-11-15T09:25:06;3.60;;;1.75;;
66966;SDS011;53900;51.468;-2.586;2022-11-15T09:27:32;3.75;;;0.80;;
66966;SDS011;53900;51.468;-2.586;2022-11-15T09:29:57;6.88;;;0.80;;
66966;SDS011;53900;51.468;-2.586;2022-11-15T09:32:23;3.65;;;0.77;;
66966;SDS011;53900;51.468;-2.586;2022-11-15T09:34:49;4.57;;;0.95;;
66966;SDS011;53900;51.468;-2.586;2022-11-15T09:37:15;3.22;;;1.33;;
66966;SDS011;53900;51.468;-2.586;2022-11-15T09:39:40;3.20;;;0.95;;
66966;SDS011;53900;51.468;-2.586;2022-11-15T09:47:45;3.80;;;0.80;;
66966;SDS011;53900;51.468;-2.586;2022-11-15T09:50:27;1.42;;;0.55;;
66966;SDS011;53900;51.468;-2.586;2022-11-15T09:52:56;1.35;;;0.88;;
66966;SDS011;53900;51.468;-2.586;2022-11-15T09:55:23;4.38;;;0.68;;
66966;SDS011;53900;51.468;-2.586;2022-11-15T09:58:01;5.00;;;0.85;;
66966;SDS011;53900;51.468;-2.586;2022-11-15T10:00:39;2.50;;;0.93;;
66966;SDS011;53900;51.468;-2.586;2022-11-15T10:03:13;9.80;;;1.25;;
66966;SDS011;53900;51.468;-2.586;2022-11-15T10:05:41;5.00;;;0.70;;
66966;SDS011;53900;51.468;-2.586;2022-11-15T10:10:49;5.30;;;1.10;;
66966;SDS011;53900;51.468;-2.586;2022-11-15T10:13:28;5.32;;;1.38;;
66966;SDS011;53900;51.468;-2.586;2022-11-15T10:15:58;8.85;;;1.05;;
66966;SDS011;53900;51.468;-2.586;2022-11-15T10:21:40;4.82;;;1.10;;
66966;SDS011;53900;51.468;-2.586;2022-11-15T10:24:26;5.93;;;1.17;;
66966;SDS011;53900;51.468;-2.586;2022-11-15T10:26:53;4.63;;;1.33;;
66966;SDS011;53900;51.468;-2.586;2022-11-15T10:29:20;5.32;;;1.08;;
66966;SDS011;53900;51.468;-2.586;2022-11-15T10:31:46;10.65;;;1.60;;
66966;SDS011;53900;51.468;-2.586;2022-11-15T10:34:16;3.67;;;1.15;;
66966;SDS011;53900;51.468;-2.586;2022-11-15T10:36:46;7.03;;;1.25;;
66966;SDS011;53900;51.468;-2.586;2022-11-15T10:39:18;5.47;;;1.13;;
66966;SDS011;53900;51.468;-2.586;2022-11-15T10:41:44;6.15;;;1.30;;
66966;SDS011;53900;51.468;-2.586;2022-11-15T10:44:18;4.78;;;1.17;;
66966;SDS011;53900;51.468;-2.586;2022-11-15T10:49:20;3.40;;;1.10;;
66966;SDS011;53900;51.468;-2.586;2022-11-15T10:51:53;5.72;;;1.40;;
66966;SDS011;53900;51.468;-2.586;2022-11-15T10:54:28;4.07;;;0.85;;
66966;SDS011;53900;51.468;-2.586;2022-11-15T10:57:10;7.40;;;1.20;;
66966;SDS011;53900;51.468;-2.586;2022-11-15T10:59:58;8.80;;;1.90;;
66966;SDS011;53900;51.468;-2.586;2022-11-15T11:02:30;6.45;;;1.35;;
66966;SDS011;53900;51.468;-2.586;2022-11-15T11:04:56;5.45;;;1.20;;
66966;SDS011;53900;51.468;-2.586;2022-11-15T11:07:23;4.32;;;1.00;;
66966;SDS011;53900;51.468;-2.586;2022-11-15T11:09:57;5.32;;;1.35;;
66966;SDS011;53900;51.468;-2.586;2022-11-15T11:12:43;6.32;;;1.02;;
66966;SDS011;53900;51.468;-2.586;2022-11-15T11:15:12;5.97;;;1.67;;
66966;SDS011;53900;51.468;-2.586;2022-11-15T11:25:42;6.80;;;1.73;;
66966;SDS011;53900;51.468;-2.586;2022-11-15T11:33:31;7.72;;;1.55;;
66966;SDS011;53900;51.468;-2.586;2022-11-15T11:41:26;5.47;;;1.35;;
66966;SDS011;53900;51.468;-2.586;2022-11-15T11:52:24;6.18;;;1.30;;
66966;SDS011;53900;51.468;-2.586;2022-11-15T12:00:25;7.40;;;1.17;;
66966;SDS011;53900;51.468;-2.586;2022-11-15T12:11:10;5.30;;;1.25;;
66966;SDS011;53900;51.468;-2.586;2022-11-15T12:13:39;4.13;;;1.08;;
66966;SDS011;53900;51.468;-2.586;2022-11-15T12:16:07;6.03;;;1.23;;
66966;SDS011;53900;51.468;-2.586;2022-11-15T12:18:36;4.32;;;1.08;;
66966;SDS011;53900;51.468;-2.586;2022-11-15T12:21:47;5.28;;;1.10;;
66966;SDS011;53900;51.468;-2.586;2022-11-15T12:27:01;4.43;;;0.90;;
66966;SDS011;53900;51.468;-2.586;2022-11-15T12:29:50;6.10;;;1.35;;
66966;SDS011;53900;51.468;-2.586;2022-11-15T12:35:00;4.68;;;1.38;;
66966;SDS011;53900;51.468;-2.586;2022-11-15T13:06:44;12.70;;;1.63;;
66966;SDS011;53900;51.468;-2.586;2022-11-15T13:14:53;10.15;;;1.70;;
66966;SDS011;53900;51.468;-2.586;2022-11-15T13:19:43;8.75;;;1.83;;
66966;SDS011;53900;51.468;-2.586;2022-11-15T13:22:11;10.00;;;1.83;;
66966;SDS011;53900;51.468;-2.586;2022-11-15T13:24:55;9.77;;;1.98;;
66966;SDS011;53900;51.468;-2.586;2022-11-15T13:27:21;11.57;;;2.00;;
66966;SDS011;53900;51.468;-2.586;2022-11-15T13:29:46;13.50;;;2.10;;
66966;SDS011;53900;51.468;-2.586;2022-11-15T13:32:12;10.30;;;1.85;;
66966;SDS011;53900;51.468;-2.586;2022-11-15T13:34:38;15.00;;;2.78;;
66966;SDS011;53900;51.468;-2.586;2022-11-15T13:37:04;13.60;;;2.30;;
66966;SDS011;53900;51.468;-2.586;2022-11-15T13:39:37;16.95;;;1.90;;
66966;SDS011;53900;51.468;-2.586;2022-11-15T13:42:03;8.20;;;1.75;;
66966;SDS011;53900;51.468;-2.586;2022-11-15T13:44:30;9.98;;;1.77;;
66966;SDS011;53900;51.468;-2.586;2022-11-15T13:47:00;9.77;;;1.80;;
66966;SDS011;53900;51.468;-2.586;2022-11-15T13:49:39;9.18;;;2.20;;
66966;SDS011;53900;51.468;-2.586;2022-11-15T13:52:05;10.32;;;2.25;;
66966;SDS011;53900;51.468;-2.586;2022-11-15T13:54:36;12.25;;;2.00;;
66966;SDS011;53900;51.468;-2.586;2022-11-15T14:00:24;6.05;;;1.40;;
66966;SDS011;53900;51.468;-2.586;2022-11-15T14:05:03;7.57;;;1.42;;
66966;SDS011;53900;51.468;-2.586;2022-11-15T14:07:52;9.73;;;2.10;;
66966;SDS011;53900;51.468;-2.586;2022-11-15T14:10:36;6.85;;;1.80;;
66966;SDS011;53900;51.468;-2.586;2022-11-15T14:13:03;9.85;;;1.90;;
66966;SDS011;53900;51.468;-2.586;2022-11-15T14:15:31;11.80;;;1.92;;
66966;SDS011;53900;51.468;-2.586;2022-11-15T14:17:58;9.55;;;1.83;;
66966;SDS011;53900;51.468;-2.586;2022-11-15T14:20:28;6.68;;;1.70;;
66966;SDS011;53900;51.468;-2.586;2022-11-15T14:22:56;10.70;;;2.00;;
66966;SDS011;53900;51.468;-2.586;2022-11-15T14:25:32;14.50;;;2.30;;
66966;SDS011;53900;51.468;-2.586;2022-11-15T14:28:10;15.38;;;1.95;;
66966;SDS011;53900;51.468;-2.586;2022-11-15T14:30:48;8.80;;;2.30;;
66966;SDS011;53900;51.468;-2.586;2022-11-15T14:33:26;13.98;;;1.75;;
66966;SDS011;53900;51.468;-2.586;2022-11-15T14:35:54;13.57;;;2.15;;
66966;SDS011;53900;51.468;-2.586;2022-11-15T14:38:22;22.15;;;3.15;;
66966;SDS011;53900;51.468;-2.586;2022-11-15T14:40:48;16.30;;;2.42;;
66966;SDS011;53900;51.468;-2.586;2022-11-15T14:43:13;7.75;;;1.77;;
66966;SDS011;53900;51.468;-2.586;2022-11-15T14:45:39;5.82;;;1.80;;
66966;SDS011;53900;51.468;-2.586;2022-11-15T14:48:05;9.15;;;1.80;;
66966;SDS011;53900;51.468;-2.586;2022-11-15T14:50:31;10.68;;;2.22;;
66966;SDS011;53900;51.468;-2.586;2022-11-15T14:52:58;10.07;;;2.15;;
66966;SDS011;53900;51.468;-2.586;2022-11-15T14:55:24;12.18;;;2.10;;
66966;SDS011;53900;51.468;-2.586;2022-11-15T14:58:04;8.60;;;1.80;;
66966;SDS011;53900;51.468;-2.586;2022-11-15T15:00:32;6.97;;;1.67;;
66966;SDS011;53900;51.468;-2.586;2022-11-15T15:02:59;10.75;;;1.90;;
66966;SDS011;53900;51.468;-2.586;2022-11-15T15:08:01;10.07;;;1.77;;
66966;SDS011;53900;51.468;-2.586;2022-11-15T15:10:30;8.73;;;1.85;;
66966;SDS011;53900;51.468;-2.586;2022-11-15T15:12:59;10.63;;;2.10;;
66966;SDS011;53900;51.468;-2.586;2022-11-15T15:15:25;12.55;;;2.00;;
66966;SDS011;53900;51.468;-2.586;2022-11-15T15:17:53;7.35;;;1.63;;
66966;SDS011;53900;51.468;-2.586;2022-11-15T15:20:18;9.25;;;1.83;;
66966;SDS011;53900;51.468;-2.586;2022-11-15T15:22:44;9.85;;;1.63;;
66966;SDS011;53900;51.468;-2.586;2022-11-15T15:27:51;8.15;;;1.60;;
66966;SDS011;53900;51.468;-2.586;2022-11-15T15:30:17;11.38;;;2.20;;
66966;SDS011;53900;51.468;-2.586;2022-11-15T15:32:43;10.10;;;2.03;;
66966;SDS011;53900;51.468;-2.586;2022-11-15T15:35:11;6.10;;;1.60;;
66966;SDS011;53900;51.468;-2.586;2022-11-15T15:37:37;3.83;;;1.17;;
66966;SDS011;53900;51.468;-2.586;2022-11-15T15:40:02;5.65;;;1.20;;
66966;SDS011;53900;51.468;-2.586;2022-11-15T15:42:28;6.75;;;2.83;;
66966;SDS011;53900;51.468;-2.586;2022-11-15T15:44:53;5.28;;;1.50;;
66966;SDS011;53900;51.468;-2.586;2022-11-15T15:47:19;4.90;;;1.08;;
66966;SDS011;53900;51.468;-2.586;2022-11-15T15:49:46;5.85;;;1.45;;
66966;SDS011;53900;51.468;-2.586;2022-11-15T15:52:12;6.43;;;1.73;;
66966;SDS011;53900;51.468;-2.586;2022-11-15T15:54:38;5.32;;;1.48;;
66966;SDS011;53900;51.468;-2.586;2022-11-15T15:57:03;5.05;;;1.10;;
66966;SDS011;53900;51.468;-2.586;2022-11-15T15:59:30;8.60;;;0.80;;
66966;SDS011;53900;51.468;-2.586;2022-11-15T16:01:55;5.63;;;1.20;;
66966;SDS011;53900;51.468;-2.586;2022-11-15T16:04:21;5.13;;;1.25;;
66966;SDS011;53900;51.468;-2.586;2022-11-15T16:06:46;4.40;;;1.10;;
66966;SDS011;53900;51.468;-2.586;2022-11-15T16:09:15;3.70;;;1.30;;
66966;SDS011;53900;51.468;-2.586;2022-11-15T16:11:43;10.80;;;1.67;;
66966;SDS011;53900;51.468;-2.586;2022-11-15T16:14:09;5.47;;;1.40;;
66966;SDS011;53900;51.468;-2.586;2022-11-15T16:16:35;3.72;;;1.05;;
66966;SDS011;53900;51.468;-2.586;2022-11-15T16:19:01;6.05;;;1.50;;
66966;SDS011;53900;51.468;-2.586;2022-11-15T16:21:27;3.42;;;1.05;;
66966;SDS011;53900;51.468;-2.586;2022-11-15T16:23:52;7.20;;;1.30;;
66966;SDS011;53900;51.468;-2.586;2022-11-15T16:26:21;5.28;;;2.15;;
66966;SDS011;53900;51.468;-2.586;2022-11-15T16:28:49;6.20;;;1.77;;
66966;SDS011;53900;51.468;-2.586;2022-11-15T16:31:14;5.28;;;1.80;;
66966;SDS011;53900;51.468;-2.586;2022-11-15T16:33:43;10.60;;;1.85;;
66966;SDS011;53900;51.468;-2.586;2022-11-15T16:36:22;2.90;;;1.30;;
66966;SDS011;53900;51.468;-2.586;2022-11-15T16:38:48;8.05;;;1.63;;
66966;SDS011;53900;51.468;-2.586;2022-11-15T16:41:13;7.10;;;1.48;;
66966;SDS011;53900;51.468;-2.586;2022-11-15T16:43:41;7.35;;;1.95;;
66966;SDS011;53900;51.468;-2.586;2022-11-15T16:46:11;7.80;;;1.70;;
66966;SDS011;53900;51.468;-2.586;2022-11-15T16:48:38;8.90;;;1.95;;
66966;SDS011;53900;51.468;-2.586;2022-11-15T16:51:04;6.65;;;1.80;;
66966;SDS011;53900;51.468;-2.586;2022-11-15T16:53:29;4.15;;;1.63;;
66966;SDS011;53900;51.468;-2.586;2022-11-15T16:55:56;6.78;;;2.72;;
66966;SDS011;53900;51.468;-2.586;2022-11-15T16:58:22;14.35;;;6.47;;
66966;SDS011;53900;51.468;-2.586;2022-11-15T17:00:51;12.73;;;4.50;;
66966;SDS011;53900;51.468;-2.586;2022-11-15T17:03:17;9.05;;;3.10;;